sensor_id;sensor_type;location;lat;lon;timestamp;temperature;humidity
38860;DHT22;24609;48.316;16.174;2024-01-30T00:01:36;0.20;35.10
38860;DHT22;24609;48.316;16.174;2024-01-30T00:04:02;0.00;46.20
38860;DHT22;24609;48.316;16.174;2024-01-30T00:06:28;-0.10;64.20
38860;DHT22;24609;48.316;16.174;2024-01-30T00:08:53;-0.20;99.90
38860;DHT22;24609;48.316;16.174;2024-01-30T00:11:19;-0.40;86.40
38860;DHT22;24609;48.316;16.174;2024-01-30T00:13:46;-0.30;99.90
38860;DHT22;24609;48.316;16.174;2024-01-30T00:16:22;-0.40;99.90
38860;DHT22;24609;48.316;16.174;2024-01-30T00:18:50;-0.50;99.90
38860;DHT22;24609;48.316;16.174;2024-01-30T00:21:16;-0.60;99.90
38860;DHT22;24609;48.316;16.174;2024-01-30T00:23:42;-0.70;99.90
38860;DHT22;24609;48.316;16.174;2024-01-30T00:26:07;-0.80;99.90
38860;DHT22;24609;48.316;16.174;2024-01-30T00:28:33;-0.90;99.90
38860;DHT22;24609;48.316;16.174;2024-01-30T00:30:59;-0.90;99.90
38860;DHT22;24609;48.316;16.174;2024-01-30T00:33:24;-1.00;99.90
38860;DHT22;24609;48.316;16.174;2024-01-30T00:35:50;-1.00;99.90
38860;DHT22;24609;48.316;16.174;2024-01-30T00:38:16;-0.90;99.90
38860;DHT22;24609;48.316;16.174;2024-01-30T00:40:41;-0.90;99.90
38860;DHT22;24609;48.316;16.174;2024-01-30T00:43:07;-1.00;99.90
38860;DHT22;24609;48.316;16.174;2024-01-30T00:45:33;-1.10;99.90
38860;DHT22;24609;48.316;16.174;2024-01-30T00:47:59;-1.20;99.90
38860;DHT22;24609;48.316;16.174;2024-01-30T00:50:24;-1.30;99.90
38860;DHT22;24609;48.316;16.174;2024-01-30T00:52:50;-1.20;99.90
38860;DHT22;24609;48.316;16.174;2024-01-30T00:55:16;-1.10;1.00
38860;DHT22;24609;48.316;16.174;2024-01-30T00:57:41;-1.10;99.90
38860;DHT22;24609;48.316;16.174;2024-01-30T01:00:08;-1.00;1.00
38860;DHT22;24609;48.316;16.174;2024-01-30T01:02:37;-1.00;1.00
38860;DHT22;24609;48.316;16.174;2024-01-30T01:05:04;-1.10;1.00
38860;DHT22;24609;48.316;16.174;2024-01-30T01:07:30;-1.20;1.00
38860;DHT22;24609;48.316;16.174;2024-01-30T01:09:56;-1.10;1.00
38860;DHT22;24609;48.316;16.174;2024-01-30T01:12:21;-1.10;1.00
38860;DHT22;24609;48.316;16.174;2024-01-30T01:14:47;-1.10;1.00
38860;DHT22;24609;48.316;16.174;2024-01-30T01:17:13;-0.90;1.00
38860;DHT22;24609;48.316;16.174;2024-01-30T01:19:38;-0.80;1.00
38860;DHT22;24609;48.316;16.174;2024-01-30T01:22:04;-0.90;1.00
38860;DHT22;24609;48.316;16.174;2024-01-30T01:24:33;-1.00;1.00
38860;DHT22;24609;48.316;16.174;2024-01-30T01:26:59;-1.10;1.00
38860;DHT22;24609;48.316;16.174;2024-01-30T01:29:25;-1.20;1.00
38860;DHT22;24609;48.316;16.174;2024-01-30T01:31:54;-1.30;1.00
38860;DHT22;24609;48.316;16.174;2024-01-30T01:34:21;-1.30;1.00
38860;DHT22;24609;48.316;16.174;2024-01-30T01:36:47;-1.30;1.00
38860;DHT22;24609;48.316;16.174;2024-01-30T01:39:12;-1.40;99.90
38860;DHT22;24609;48.316;16.174;2024-01-30T01:41:38;-1.30;1.00
38860;DHT22;24609;48.316;16.174;2024-01-30T01:44:04;-1.20;1.00
38860;DHT22;24609;48.316;16.174;2024-01-30T01:46:33;-1.30;1.00
38860;DHT22;24609;48.316;16.174;2024-01-30T01:49:00;-1.40;1.00
38860;DHT22;24609;48.316;16.174;2024-01-30T01:51:27;-1.40;1.00
38860;DHT22;24609;48.316;16.174;2024-01-30T01:53:56;-1.50;1.00
38860;DHT22;24609;48.316;16.174;2024-01-30T01:56:23;-1.50;1.00
38860;DHT22;24609;48.316;16.174;2024-01-30T01:58:50;-1.60;1.00
38860;DHT22;24609;48.316;16.174;2024-01-30T02:01:19;-1.60;1.00
38860;DHT22;24609;48.316;16.174;2024-01-30T02:03:46;-1.60;1.00
38860;DHT22;24609;48.316;16.174;2024-01-30T02:06:15;-1.60;1.00
38860;DHT22;24609;48.316;16.174;2024-01-30T02:08:42;-1.40;1.00
38860;DHT22;24609;48.316;16.174;2024-01-30T02:11:08;-1.60;1.00
38860;DHT22;24609;48.316;16.174;2024-01-30T02:13:35;-1.70;1.00
38860;DHT22;24609;48.316;16.174;2024-01-30T02:16:01;-1.90;1.00
38860;DHT22;24609;48.316;16.174;2024-01-30T02:18:27;-1.80;1.00
38860;DHT22;24609;48.316;16.174;2024-01-30T02:20:54;-1.80;1.00
38860;DHT22;24609;48.316;16.174;2024-01-30T02:23:24;-1.90;1.00
38860;DHT22;24609;48.316;16.174;2024-01-30T02:25:50;-1.90;1.00
38860;DHT22;24609;48.316;16.174;2024-01-30T02:28:19;-2.00;1.00
38860;DHT22;24609;48.316;16.174;2024-01-30T02:30:45;-1.90;1.00
38860;DHT22;24609;48.316;16.174;2024-01-30T02:33:12;-1.90;1.00
38860;DHT22;24609;48.316;16.174;2024-01-30T02:35:38;-1.90;1.00
38860;DHT22;24609;48.316;16.174;2024-01-30T02:38:04;-1.90;1.00
38860;DHT22;24609;48.316;16.174;2024-01-30T02:40:30;-2.00;1.00
38860;DHT22;24609;48.316;16.174;2024-01-30T02:42:57;-2.00;1.00
38860;DHT22;24609;48.316;16.174;2024-01-30T02:45:23;-2.00;1.00
38860;DHT22;24609;48.316;16.174;2024-01-30T02:47:48;-1.90;1.00
38860;DHT22;24609;48.316;16.174;2024-01-30T02:50:14;-2.00;1.00
38860;DHT22;24609;48.316;16.174;2024-01-30T02:52:40;-2.10;1.00
38860;DHT22;24609;48.316;16.174;2024-01-30T02:55:06;-2.10;1.00
38860;DHT22;24609;48.316;16.174;2024-01-30T02:57:32;-2.10;1.00
38860;DHT22;24609;48.316;16.174;2024-01-30T02:59:58;-2.10;1.00
38860;DHT22;24609;48.316;16.174;2024-01-30T03:02:24;-2.10;1.00
38860;DHT22;24609;48.316;16.174;2024-01-30T03:04:49;-2.00;1.00
38860;DHT22;24609;48.316;16.174;2024-01-30T03:07:15;-2.20;1.00
38860;DHT22;24609;48.316;16.174;2024-01-30T03:09:44;-2.10;1.00
38860;DHT22;24609;48.316;16.174;2024-01-30T03:12:10;-2.20;1.00
38860;DHT22;24609;48.316;16.174;2024-01-30T03:14:36;-2.10;1.00
38860;DHT22;24609;48.316;16.174;2024-01-30T03:17:02;-2.20;1.00
38860;DHT22;24609;48.316;16.174;2024-01-30T03:19:28;-2.30;1.00
38860;DHT22;24609;48.316;16.174;2024-01-30T03:21:53;-2.30;1.00
38860;DHT22;24609;48.316;16.174;2024-01-30T03:24:19;-2.20;1.00
38860;DHT22;24609;48.316;16.174;2024-01-30T03:26:45;-2.10;1.00
38860;DHT22;24609;48.316;16.174;2024-01-30T03:29:10;-2.20;1.00
38860;DHT22;24609;48.316;16.174;2024-01-30T03:31:36;-2.30;1.00
38860;DHT22;24609;48.316;16.174;2024-01-30T03:34:02;-2.40;1.00
38860;DHT22;24609;48.316;16.174;2024-01-30T03:36:28;-2.30;1.00
38860;DHT22;24609;48.316;16.174;2024-01-30T03:38:54;-2.30;1.00
38860;DHT22;24609;48.316;16.174;2024-01-30T03:41:20;-2.40;1.00
38860;DHT22;24609;48.316;16.174;2024-01-30T03:43:46;-2.50;1.00
38860;DHT22;24609;48.316;16.174;2024-01-30T03:46:12;-2.50;1.00
38860;DHT22;24609;48.316;16.174;2024-01-30T03:48:38;-2.20;7.00
38860;DHT22;24609;48.316;16.174;2024-01-30T03:51:05;-2.00;15.10
38860;DHT22;24609;48.316;16.174;2024-01-30T03:53:30;-2.00;18.50
38860;DHT22;24609;48.316;16.174;2024-01-30T03:55:56;-1.90;23.80
38860;DHT22;24609;48.316;16.174;2024-01-30T03:58:22;-2.00;24.70
38860;DHT22;24609;48.316;16.174;2024-01-30T04:00:48;-2.10;25.10
38860;DHT22;24609;48.316;16.174;2024-01-30T04:03:16;-2.10;28.20
38860;DHT22;24609;48.316;16.174;2024-01-30T04:05:42;-2.00;30.90
38860;DHT22;24609;48.316;16.174;2024-01-30T04:08:08;-2.00;33.00
38860;DHT22;24609;48.316;16.174;2024-01-30T04:10:34;-1.90;37.80
38860;DHT22;24609;48.316;16.174;2024-01-30T04:13:00;-2.00;38.40
38860;DHT22;24609;48.316;16.174;2024-01-30T04:15:26;-1.60;46.90
38860;DHT22;24609;48.316;16.174;2024-01-30T04:17:52;-1.60;51.80
38860;DHT22;24609;48.316;16.174;2024-01-30T04:20:18;-1.70;56.30
38860;DHT22;24609;48.316;16.174;2024-01-30T04:22:44;-1.80;58.90
38860;DHT22;24609;48.316;16.174;2024-01-30T04:25:11;-1.90;59.00
38860;DHT22;24609;48.316;16.174;2024-01-30T04:27:37;-1.90;61.10
38860;DHT22;24609;48.316;16.174;2024-01-30T04:30:03;-1.90;61.10
38860;DHT22;24609;48.316;16.174;2024-01-30T04:32:29;-1.90;66.80
38860;DHT22;24609;48.316;16.174;2024-01-30T04:34:55;-1.60;76.40
38860;DHT22;24609;48.316;16.174;2024-01-30T04:37:21;-1.90;70.50
38860;DHT22;24609;48.316;16.174;2024-01-30T04:39:46;-2.00;64.50
38860;DHT22;24609;48.316;16.174;2024-01-30T04:42:12;-2.20;55.20
38860;DHT22;24609;48.316;16.174;2024-01-30T04:44:38;-2.30;53.60
38860;DHT22;24609;48.316;16.174;2024-01-30T04:47:04;-2.30;52.70
38860;DHT22;24609;48.316;16.174;2024-01-30T04:49:31;-2.30;53.60
38860;DHT22;24609;48.316;16.174;2024-01-30T04:51:57;-2.30;53.60
38860;DHT22;24609;48.316;16.174;2024-01-30T04:54:23;-2.20;57.20
38860;DHT22;24609;48.316;16.174;2024-01-30T04:56:49;-2.10;64.40
38860;DHT22;24609;48.316;16.174;2024-01-30T04:59:15;-2.20;60.90
38860;DHT22;24609;48.316;16.174;2024-01-30T05:01:40;-2.30;55.10
38860;DHT22;24609;48.316;16.174;2024-01-30T05:04:09;-2.40;49.80
38860;DHT22;24609;48.316;16.174;2024-01-30T05:06:36;-2.40;48.20
38860;DHT22;24609;48.316;16.174;2024-01-30T05:09:02;-2.20;58.30
38860;DHT22;24609;48.316;16.174;2024-01-30T05:11:30;-2.20;57.60
38860;DHT22;24609;48.316;16.174;2024-01-30T05:13:55;-2.30;53.30
38860;DHT22;24609;48.316;16.174;2024-01-30T05:16:21;-2.40;51.90
38860;DHT22;24609;48.316;16.174;2024-01-30T05:18:47;-2.50;46.70
38860;DHT22;24609;48.316;16.174;2024-01-30T05:21:13;-2.50;49.10
38860;DHT22;24609;48.316;16.174;2024-01-30T05:23:38;-2.50;49.80
38860;DHT22;24609;48.316;16.174;2024-01-30T05:26:04;-2.50;46.40
38860;DHT22;24609;48.316;16.174;2024-01-30T05:28:30;-2.40;52.60
38860;DHT22;24609;48.316;16.174;2024-01-30T05:30:56;-2.50;54.80
38860;DHT22;24609;48.316;16.174;2024-01-30T05:33:21;-2.60;51.90
38860;DHT22;24609;48.316;16.174;2024-01-30T05:35:47;-2.60;51.50
38860;DHT22;24609;48.316;16.174;2024-01-30T05:38:15;-2.70;47.90
38860;DHT22;24609;48.316;16.174;2024-01-30T05:40:41;-2.80;47.10
38860;DHT22;24609;48.316;16.174;2024-01-30T05:43:06;-2.90;42.30
38860;DHT22;24609;48.316;16.174;2024-01-30T05:45:33;-3.00;39.50
38860;DHT22;24609;48.316;16.174;2024-01-30T05:48:00;-2.80;46.00
38860;DHT22;24609;48.316;16.174;2024-01-30T05:50:26;-2.90;45.70
38860;DHT22;24609;48.316;16.174;2024-01-30T05:52:52;-3.00;44.40
38860;DHT22;24609;48.316;16.174;2024-01-30T05:55:18;-2.90;47.50
38860;DHT22;24609;48.316;16.174;2024-01-30T05:57:43;-2.90;45.80
38860;DHT22;24609;48.316;16.174;2024-01-30T06:00:09;-3.00;45.50
38860;DHT22;24609;48.316;16.174;2024-01-30T06:02:36;-3.00;45.00
38860;DHT22;24609;48.316;16.174;2024-01-30T06:05:01;-3.00;45.60
38860;DHT22;24609;48.316;16.174;2024-01-30T06:07:27;-3.10;44.60
38860;DHT22;24609;48.316;16.174;2024-01-30T06:09:53;-3.00;48.60
38860;DHT22;24609;48.316;16.174;2024-01-30T06:12:19;-2.90;51.50
38860;DHT22;24609;48.316;16.174;2024-01-30T06:14:44;-2.90;52.60
38860;DHT22;24609;48.316;16.174;2024-01-30T06:17:10;-3.00;50.40
38860;DHT22;24609;48.316;16.174;2024-01-30T06:19:40;-3.10;50.90
38860;DHT22;24609;48.316;16.174;2024-01-30T06:22:06;-3.20;51.10
38860;DHT22;24609;48.316;16.174;2024-01-30T06:24:31;-3.20;51.70
38860;DHT22;24609;48.316;16.174;2024-01-30T06:26:57;-3.10;53.10
38860;DHT22;24609;48.316;16.174;2024-01-30T06:29:23;-3.10;53.70
38860;DHT22;24609;48.316;16.174;2024-01-30T06:31:50;-3.10;56.00
38860;DHT22;24609;48.316;16.174;2024-01-30T06:34:16;-3.00;57.90
38860;DHT22;24609;48.316;16.174;2024-01-30T06:36:41;-3.00;57.20
38860;DHT22;24609;48.316;16.174;2024-01-30T06:39:07;-3.00;59.80
38860;DHT22;24609;48.316;16.174;2024-01-30T06:41:33;-3.00;58.70
38860;DHT22;24609;48.316;16.174;2024-01-30T06:43:59;-3.10;58.60
38860;DHT22;24609;48.316;16.174;2024-01-30T06:46:24;-3.00;60.60
38860;DHT22;24609;48.316;16.174;2024-01-30T06:48:50;-3.10;58.30
38860;DHT22;24609;48.316;16.174;2024-01-30T06:51:16;-3.10;57.50
38860;DHT22;24609;48.316;16.174;2024-01-30T06:53:41;-3.10;56.30
38860;DHT22;24609;48.316;16.174;2024-01-30T06:56:07;-3.10;55.10
38860;DHT22;24609;48.316;16.174;2024-01-30T06:58:33;-3.00;57.30
38860;DHT22;24609;48.316;16.174;2024-01-30T07:00:59;-3.00;53.00
38860;DHT22;24609;48.316;16.174;2024-01-30T07:03:25;-3.00;53.70
38860;DHT22;24609;48.316;16.174;2024-01-30T07:05:50;-2.90;52.30
38860;DHT22;24609;48.316;16.174;2024-01-30T07:08:17;-2.90;45.20
38860;DHT22;24609;48.316;16.174;2024-01-30T07:10:43;-2.90;33.60
38860;DHT22;24609;48.316;16.174;2024-01-30T07:13:12;-2.90;23.60
38860;DHT22;24609;48.316;16.174;2024-01-30T07:15:38;-2.80;18.90
38860;DHT22;24609;48.316;16.174;2024-01-30T07:18:04;-2.70;14.30
38860;DHT22;24609;48.316;16.174;2024-01-30T07:20:30;-2.70;2.90
38860;DHT22;24609;48.316;16.174;2024-01-30T07:22:58;-2.60;1.00
38860;DHT22;24609;48.316;16.174;2024-01-30T07:25:24;-2.40;1.00
38860;DHT22;24609;48.316;16.174;2024-01-30T07:27:52;-2.30;1.00
38860;DHT22;24609;48.316;16.174;2024-01-30T07:30:19;-2.10;1.00
38860;DHT22;24609;48.316;16.174;2024-01-30T07:32:46;-1.90;1.00
38860;DHT22;24609;48.316;16.174;2024-01-30T07:35:12;-1.90;1.00
38860;DHT22;24609;48.316;16.174;2024-01-30T07:37:38;-1.60;1.00
38860;DHT22;24609;48.316;16.174;2024-01-30T07:40:05;-1.30;99.90
38860;DHT22;24609;48.316;16.174;2024-01-30T07:42:32;-1.00;99.90
38860;DHT22;24609;48.316;16.174;2024-01-30T07:44:58;-0.60;99.90
38860;DHT22;24609;48.316;16.174;2024-01-30T07:47:23;-0.40;99.90
38860;DHT22;24609;48.316;16.174;2024-01-30T07:49:49;-0.10;1.00
38860;DHT22;24609;48.316;16.174;2024-01-30T07:52:15;0.00;99.90
38860;DHT22;24609;48.316;16.174;2024-01-30T07:58:02;0.10;1.00
38860;DHT22;24609;48.316;16.174;2024-01-30T08:00:30;0.40;99.90
38860;DHT22;24609;48.316;16.174;2024-01-30T08:02:55;0.90;99.90
38860;DHT22;24609;48.316;16.174;2024-01-30T08:05:22;1.20;1.00
38860;DHT22;24609;48.316;16.174;2024-01-30T08:07:49;1.80;99.90
38860;DHT22;24609;48.316;16.174;2024-01-30T08:10:15;1.90;1.00
38860;DHT22;24609;48.316;16.174;2024-01-30T08:12:41;1.90;99.90
38860;DHT22;24609;48.316;16.174;2024-01-30T08:15:07;2.00;1.00
38860;DHT22;24609;48.316;16.174;2024-01-30T08:17:33;1.80;99.90
38860;DHT22;24609;48.316;16.174;2024-01-30T08:19:59;1.40;1.00
38860;DHT22;24609;48.316;16.174;2024-01-30T08:22:25;1.60;44.10
38860;DHT22;24609;48.316;16.174;2024-01-30T08:24:50;1.70;25.80
38860;DHT22;24609;48.316;16.174;2024-01-30T08:27:16;1.50;99.90
38860;DHT22;24609;48.316;16.174;2024-01-30T08:29:42;1.10;89.90
38860;DHT22;24609;48.316;16.174;2024-01-30T08:32:07;1.00;1.00
38860;DHT22;24609;48.316;16.174;2024-01-30T08:34:33;1.20;1.00
38860;DHT22;24609;48.316;16.174;2024-01-30T08:36:59;1.50;99.90
38860;DHT22;24609;48.316;16.174;2024-01-30T08:39:25;1.80;99.90
38860;DHT22;24609;48.316;16.174;2024-01-30T08:41:51;2.00;1.00
38860;DHT22;24609;48.316;16.174;2024-01-30T08:44:17;1.70;99.90
38860;DHT22;24609;48.316;16.174;2024-01-30T08:46:44;2.00;1.00
38860;DHT22;24609;48.316;16.174;2024-01-30T08:49:10;2.90;1.00
38860;DHT22;24609;48.316;16.174;2024-01-30T08:51:41;2.70;1.00
38860;DHT22;24609;48.316;16.174;2024-01-30T08:54:07;2.60;1.00
38860;DHT22;24609;48.316;16.174;2024-01-30T08:56:33;2.70;1.00
38860;DHT22;24609;48.316;16.174;2024-01-30T08:58:58;2.20;99.90
38860;DHT22;24609;48.316;16.174;2024-01-30T09:01:25;1.60;99.90
38860;DHT22;24609;48.316;16.174;2024-01-30T09:03:51;1.70;39.40
38860;DHT22;24609;48.316;16.174;2024-01-30T09:06:16;1.30;47.20
38860;DHT22;24609;48.316;16.174;2024-01-30T09:08:42;1.20;99.90
38860;DHT22;24609;48.316;16.174;2024-01-30T09:11:14;1.70;99.90
38860;DHT22;24609;48.316;16.174;2024-01-30T09:13:41;1.60;1.00
38860;DHT22;24609;48.316;16.174;2024-01-30T09:16:07;1.60;99.90
38860;DHT22;24609;48.316;16.174;2024-01-30T09:18:33;2.00;99.90
38860;DHT22;24609;48.316;16.174;2024-01-30T09:20:59;2.80;8.80
38860;DHT22;24609;48.316;16.174;2024-01-30T09:23:26;3.40;1.00
38860;DHT22;24609;48.316;16.174;2024-01-30T09:25:52;3.80;99.90
38860;DHT22;24609;48.316;16.174;2024-01-30T09:28:18;4.30;99.90
38860;DHT22;24609;48.316;16.174;2024-01-30T09:30:43;4.80;93.50
38860;DHT22;24609;48.316;16.174;2024-01-30T09:33:09;5.30;1.00
38860;DHT22;24609;48.316;16.174;2024-01-30T09:35:36;4.40;99.90
38860;DHT22;24609;48.316;16.174;2024-01-30T09:38:02;5.00;99.90
38860;DHT22;24609;48.316;16.174;2024-01-30T09:40:28;7.10;99.90
38860;DHT22;24609;48.316;16.174;2024-01-30T09:42:54;7.00;1.00
38860;DHT22;24609;48.316;16.174;2024-01-30T09:45:23;5.90;1.00
38860;DHT22;24609;48.316;16.174;2024-01-30T09:47:49;4.70;99.90
38860;DHT22;24609;48.316;16.174;2024-01-30T09:50:16;4.30;99.90
38860;DHT22;24609;48.316;16.174;2024-01-30T09:52:44;3.30;1.00
38860;DHT22;24609;48.316;16.174;2024-01-30T09:55:10;3.70;99.90
38860;DHT22;24609;48.316;16.174;2024-01-30T09:57:36;3.80;1.00
38860;DHT22;24609;48.316;16.174;2024-01-30T10:00:05;3.90;99.90
38860;DHT22;24609;48.316;16.174;2024-01-30T10:02:34;3.70;99.90
38860;DHT22;24609;48.316;16.174;2024-01-30T10:05:01;3.20;1.00
38860;DHT22;24609;48.316;16.174;2024-01-30T10:07:27;3.00;1.00
38860;DHT22;24609;48.316;16.174;2024-01-30T10:09:53;3.20;1.00
38860;DHT22;24609;48.316;16.174;2024-01-30T10:12:18;3.00;99.90
38860;DHT22;24609;48.316;16.174;2024-01-30T10:14:44;3.40;1.00
38860;DHT22;24609;48.316;16.174;2024-01-30T10:17:11;3.90;17.30
38860;DHT22;24609;48.316;16.174;2024-01-30T10:19:41;5.10;99.90
38860;DHT22;24609;48.316;16.174;2024-01-30T10:22:07;5.40;99.90
38860;DHT22;24609;48.316;16.174;2024-01-30T10:24:36;5.00;99.90
38860;DHT22;24609;48.316;16.174;2024-01-30T10:27:02;4.70;75.10
38860;DHT22;24609;48.316;16.174;2024-01-30T10:29:28;4.80;99.90
38860;DHT22;24609;48.316;16.174;2024-01-30T10:32:12;3.80;1.00
38860;DHT22;24609;48.316;16.174;2024-01-30T10:34:38;3.50;1.00
38860;DHT22;24609;48.316;16.174;2024-01-30T10:37:07;3.20;99.90
38860;DHT22;24609;48.316;16.174;2024-01-30T10:39:40;3.30;99.90
38860;DHT22;24609;48.316;16.174;2024-01-30T10:42:07;3.30;1.00
38860;DHT22;24609;48.316;16.174;2024-01-30T10:47:23;2.80;1.00
38860;DHT22;24609;48.316;16.174;2024-01-30T10:49:51;2.90;99.90
38860;DHT22;24609;48.316;16.174;2024-01-30T10:52:18;3.30;99.90
38860;DHT22;24609;48.316;16.174;2024-01-30T10:54:46;4.00;99.90
38860;DHT22;24609;48.316;16.174;2024-01-30T10:57:13;4.40;1.00
38860;DHT22;24609;48.316;16.174;2024-01-30T10:59:41;4.60;1.00
38860;DHT22;24609;48.316;16.174;2024-01-30T11:02:08;4.50;1.00
38860;DHT22;24609;48.316;16.174;2024-01-30T11:04:38;4.40;99.90
38860;DHT22;24609;48.316;16.174;2024-01-30T11:07:27;4.80;14.80
38860;DHT22;24609;48.316;16.174;2024-01-30T11:12:24;5.10;1.00
38860;DHT22;24609;48.316;16.174;2024-01-30T11:15:01;5.30;52.80
38860;DHT22;24609;48.316;16.174;2024-01-30T11:17:28;4.60;1.00
38860;DHT22;24609;48.316;16.174;2024-01-30T11:19:54;4.80;99.90
38860;DHT22;24609;48.316;16.174;2024-01-30T11:22:22;5.20;90.40
38860;DHT22;24609;48.316;16.174;2024-01-30T11:24:48;5.20;1.00
38860;DHT22;24609;48.316;16.174;2024-01-30T11:27:15;5.40;1.00
38860;DHT22;24609;48.316;16.174;2024-01-30T11:29:40;5.80;1.00
38860;DHT22;24609;48.316;16.174;2024-01-30T11:32:06;5.70;99.90
38860;DHT22;24609;48.316;16.174;2024-01-30T11:34:33;4.80;99.90
38860;DHT22;24609;48.316;16.174;2024-01-30T11:37:04;4.50;69.20
38860;DHT22;24609;48.316;16.174;2024-01-30T11:39:31;4.20;99.90
38860;DHT22;24609;48.316;16.174;2024-01-30T11:41:58;4.10;1.00
38860;DHT22;24609;48.316;16.174;2024-01-30T11:44:25;4.40;12.30
38860;DHT22;24609;48.316;16.174;2024-01-30T11:46:51;4.10;1.00
38860;DHT22;24609;48.316;16.174;2024-01-30T11:49:18;4.80;99.90
38860;DHT22;24609;48.316;16.174;2024-01-30T11:51:45;5.20;99.90
38860;DHT22;24609;48.316;16.174;2024-01-30T11:54:11;5.00;93.80
38860;DHT22;24609;48.316;16.174;2024-01-30T11:56:37;4.90;99.90
38860;DHT22;24609;48.316;16.174;2024-01-30T11:59:04;5.20;99.90
38860;DHT22;24609;48.316;16.174;2024-01-30T12:01:31;5.10;1.00
38860;DHT22;24609;48.316;16.174;2024-01-30T12:03:58;4.60;99.90
38860;DHT22;24609;48.316;16.174;2024-01-30T12:06:23;4.70;99.90
38860;DHT22;24609;48.316;16.174;2024-01-30T12:08:59;5.20;1.00
38860;DHT22;24609;48.316;16.174;2024-01-30T12:11:26;5.80;99.90
38860;DHT22;24609;48.316;16.174;2024-01-30T12:13:53;6.00;99.90
38860;DHT22;24609;48.316;16.174;2024-01-30T12:16:20;6.00;99.90
38860;DHT22;24609;48.316;16.174;2024-01-30T12:18:46;5.90;99.90
38860;DHT22;24609;48.316;16.174;2024-01-30T12:21:12;6.50;99.90
38860;DHT22;24609;48.316;16.174;2024-01-30T12:23:37;6.40;99.40
38860;DHT22;24609;48.316;16.174;2024-01-30T12:26:04;6.10;99.90
38860;DHT22;24609;48.316;16.174;2024-01-30T12:28:33;5.70;99.90
38860;DHT22;24609;48.316;16.174;2024-01-30T12:31:05;5.80;99.90
38860;DHT22;24609;48.316;16.174;2024-01-30T12:33:31;5.00;99.90
38860;DHT22;24609;48.316;16.174;2024-01-30T12:36:00;4.00;99.90
38860;DHT22;24609;48.316;16.174;2024-01-30T12:38:27;3.50;99.90
38860;DHT22;24609;48.316;16.174;2024-01-30T12:40:56;3.40;1.00
38860;DHT22;24609;48.316;16.174;2024-01-30T12:43:23;3.30;99.90
38860;DHT22;24609;48.316;16.174;2024-01-30T12:45:50;4.20;1.00
38860;DHT22;24609;48.316;16.174;2024-01-30T12:48:15;4.40;1.00
38860;DHT22;24609;48.316;16.174;2024-01-30T12:50:41;4.50;1.00
38860;DHT22;24609;48.316;16.174;2024-01-30T12:53:07;4.00;70.50
38860;DHT22;24609;48.316;16.174;2024-01-30T12:55:34;3.90;99.90
38860;DHT22;24609;48.316;16.174;2024-01-30T12:58:00;3.90;1.00
38860;DHT22;24609;48.316;16.174;2024-01-30T13:00:26;3.80;99.90
38860;DHT22;24609;48.316;16.174;2024-01-30T13:02:52;3.80;99.90
38860;DHT22;24609;48.316;16.174;2024-01-30T13:05:18;3.80;1.00
38860;DHT22;24609;48.316;16.174;2024-01-30T13:07:44;3.30;1.00
38860;DHT22;24609;48.316;16.174;2024-01-30T13:10:10;3.80;99.90
38860;DHT22;24609;48.316;16.174;2024-01-30T13:12:35;3.90;99.90
38860;DHT22;24609;48.316;16.174;2024-01-30T13:15:03;3.40;99.90
38860;DHT22;24609;48.316;16.174;2024-01-30T13:17:30;3.40;99.90
38860;DHT22;24609;48.316;16.174;2024-01-30T13:19:56;2.80;1.00
38860;DHT22;24609;48.316;16.174;2024-01-30T13:22:22;2.90;1.00
38860;DHT22;24609;48.316;16.174;2024-01-30T13:24:48;3.30;1.00
38860;DHT22;24609;48.316;16.174;2024-01-30T13:27:14;3.40;99.90
38860;DHT22;24609;48.316;16.174;2024-01-30T13:29:39;3.20;1.00
38860;DHT22;24609;48.316;16.174;2024-01-30T13:32:05;2.90;1.00
38860;DHT22;24609;48.316;16.174;2024-01-30T13:34:31;3.10;1.00
38860;DHT22;24609;48.316;16.174;2024-01-30T13:36:57;3.10;1.00
38860;DHT22;24609;48.316;16.174;2024-01-30T13:39:22;2.90;1.00
38860;DHT22;24609;48.316;16.174;2024-01-30T13:41:48;2.80;1.00
38860;DHT22;24609;48.316;16.174;2024-01-30T13:44:15;2.80;99.90
38860;DHT22;24609;48.316;16.174;2024-01-30T13:46:42;2.80;1.50
38860;DHT22;24609;48.316;16.174;2024-01-30T13:49:08;2.90;1.00
38860;DHT22;24609;48.316;16.174;2024-01-30T13:51:33;2.70;99.90
38860;DHT22;24609;48.316;16.174;2024-01-30T13:53:59;2.50;99.90
38860;DHT22;24609;48.316;16.174;2024-01-30T13:56:25;2.40;1.00
38860;DHT22;24609;48.316;16.174;2024-01-30T13:58:52;2.30;1.00
38860;DHT22;24609;48.316;16.174;2024-01-30T14:01:18;2.40;99.90
38860;DHT22;24609;48.316;16.174;2024-01-30T14:03:43;2.40;99.90
38860;DHT22;24609;48.316;16.174;2024-01-30T14:06:09;2.40;70.00
38860;DHT22;24609;48.316;16.174;2024-01-30T14:08:35;2.40;1.00
38860;DHT22;24609;48.316;16.174;2024-01-30T14:11:01;2.30;77.80
38860;DHT22;24609;48.316;16.174;2024-01-30T14:13:27;2.20;99.90
38860;DHT22;24609;48.316;16.174;2024-01-30T14:15:52;2.20;99.90
38860;DHT22;24609;48.316;16.174;2024-01-30T14:18:18;2.20;99.90
38860;DHT22;24609;48.316;16.174;2024-01-30T14:20:44;2.30;99.90
38860;DHT22;24609;48.316;16.174;2024-01-30T14:23:10;2.30;99.90
38860;DHT22;24609;48.316;16.174;2024-01-30T14:25:35;2.20;99.90
38860;DHT22;24609;48.316;16.174;2024-01-30T14:28:01;2.10;99.90
38860;DHT22;24609;48.316;16.174;2024-01-30T14:30:26;2.10;99.90
38860;DHT22;24609;48.316;16.174;2024-01-30T14:32:52;2.00;99.90
38860;DHT22;24609;48.316;16.174;2024-01-30T14:35:18;1.90;1.00
38860;DHT22;24609;48.316;16.174;2024-01-30T14:37:45;1.80;1.00
38860;DHT22;24609;48.316;16.174;2024-01-30T14:40:10;1.70;48.40
38860;DHT22;24609;48.316;16.174;2024-01-30T14:42:36;1.70;99.90
38860;DHT22;24609;48.316;16.174;2024-01-30T14:45:03;1.60;99.90
38860;DHT22;24609;48.316;16.174;2024-01-30T14:47:29;1.60;99.90
38860;DHT22;24609;48.316;16.174;2024-01-30T14:49:56;1.50;99.90
38860;DHT22;24609;48.316;16.174;2024-01-30T14:52:22;1.50;99.90
38860;DHT22;24609;48.316;16.174;2024-01-30T14:54:48;1.40;99.90
38860;DHT22;24609;48.316;16.174;2024-01-30T14:57:13;1.30;99.90
38860;DHT22;24609;48.316;16.174;2024-01-30T14:59:40;1.30;1.00
38860;DHT22;24609;48.316;16.174;2024-01-30T15:02:06;1.20;1.00
38860;DHT22;24609;48.316;16.174;2024-01-30T15:04:31;1.20;1.00
38860;DHT22;24609;48.316;16.174;2024-01-30T15:06:57;1.10;1.00
38860;DHT22;24609;48.316;16.174;2024-01-30T15:09:23;1.10;1.00
38860;DHT22;24609;48.316;16.174;2024-01-30T15:11:52;1.00;1.00
38860;DHT22;24609;48.316;16.174;2024-01-30T15:14:17;0.90;1.00
38860;DHT22;24609;48.316;16.174;2024-01-30T15:16:44;0.80;1.00
38860;DHT22;24609;48.316;16.174;2024-01-30T15:19:09;0.70;11.90
38860;DHT22;24609;48.316;16.174;2024-01-30T15:21:35;0.60;18.60
38860;DHT22;24609;48.316;16.174;2024-01-30T15:24:02;0.50;22.20
38860;DHT22;24609;48.316;16.174;2024-01-30T15:26:28;0.40;66.00
38860;DHT22;24609;48.316;16.174;2024-01-30T15:28:54;0.30;99.90
38860;DHT22;24609;48.316;16.174;2024-01-30T15:31:20;0.20;99.90
38860;DHT22;24609;48.316;16.174;2024-01-30T15:33:45;0.10;99.90